sensor_id;sensor_type;location;lat;lon;timestamp;pressure;altitude;pressure_sealevel;temperature;humidity
50292;BME280;36190;54.980;73.388;2023-02-13T00:01:45;101894.00;;;-19.32;59.53
50292;BME280;36190;54.980;73.388;2023-02-13T00:04:13;101903.47;;;-19.28;59.46
50292;BME280;36190;54.980;73.388;2023-02-13T00:06:40;101903.56;;;-19.25;59.58
50292;BME280;36190;54.980;73.388;2023-02-13T00:09:08;101896.91;;;-19.23;59.58
50292;BME280;36190;54.980;73.388;2023-02-13T00:11:35;101901.28;;;-19.19;59.59
50292;BME280;36190;54.980;73.388;2023-02-13T00:14:03;101895.34;;;-19.19;59.58
50292;BME280;36190;54.980;73.388;2023-02-13T00:16:32;101897.00;;;-19.20;59.45
50292;BME280;36190;54.980;73.388;2023-02-13T00:18:59;101897.81;;;-19.21;59.50
50292;BME280;36190;54.980;73.388;2023-02-13T00:21:27;101899.28;;;-19.28;59.58
50292;BME280;36190;54.980;73.388;2023-02-13T00:23:54;101896.75;;;-19.26;59.65
50292;BME280;36190;54.980;73.388;2023-02-13T00:26:22;101902.84;;;-19.23;59.76
50292;BME280;36190;54.980;73.388;2023-02-13T00:28:49;101896.75;;;-19.26;59.79
50292;BME280;36190;54.980;73.388;2023-02-13T00:31:18;101895.16;;;-19.24;59.93
50292;BME280;36190;54.980;73.388;2023-02-13T00:33:47;101892.72;;;-19.21;59.89
50292;BME280;36190;54.980;73.388;2023-02-13T00:36:16;101888.69;;;-19.16;59.97
50292;BME280;36190;54.980;73.388;2023-02-13T00:38:45;101898.06;;;-19.15;60.04
50292;BME280;36190;54.980;73.388;2023-02-13T00:41:13;101900.78;;;-19.09;60.15
50292;BME280;36190;54.980;73.388;2023-02-13T00:43:41;101898.91;;;-19.14;60.14
50292;BME280;36190;54.980;73.388;2023-02-13T00:46:09;101887.75;;;-19.18;60.05
50292;BME280;36190;54.980;73.388;2023-02-13T00:48:36;101890.41;;;-19.15;60.33
50292;BME280;36190;54.980;73.388;2023-02-13T00:51:06;101885.44;;;-19.12;60.31
50292;BME280;36190;54.980;73.388;2023-02-13T00:53:34;101886.94;;;-19.17;60.15
50292;BME280;36190;54.980;73.388;2023-02-13T00:56:02;101892.91;;;-19.16;60.26
50292;BME280;36190;54.980;73.388;2023-02-13T00:58:30;101883.59;;;-19.16;60.38
50292;BME280;36190;54.980;73.388;2023-02-13T01:00:57;101876.75;;;-19.17;60.52
50292;BME280;36190;54.980;73.388;2023-02-13T01:03:25;101875.78;;;-19.20;60.64
50292;BME280;36190;54.980;73.388;2023-02-13T01:05:52;101870.72;;;-19.20;60.60
50292;BME280;36190;54.980;73.388;2023-02-13T01:08:23;101871.56;;;-19.20;60.87
50292;BME280;36190;54.980;73.388;2023-02-13T01:10:53;101863.00;;;-19.22;60.74
50292;BME280;36190;54.980;73.388;2023-02-13T01:13:21;101866.47;;;-19.20;60.92
50292;BME280;36190;54.980;73.388;2023-02-13T01:15:49;101864.00;;;-19.18;61.02
50292;BME280;36190;54.980;73.388;2023-02-13T01:18:18;101864.09;;;-19.15;61.15
50292;BME280;36190;54.980;73.388;2023-02-13T01:20:55;101866.78;;;-19.12;61.11
50292;BME280;36190;54.980;73.388;2023-02-13T01:23:25;101873.53;;;-19.13;60.94
50292;BME280;36190;54.980;73.388;2023-02-13T01:25:56;101865.81;;;-19.14;61.21
50292;BME280;36190;54.980;73.388;2023-02-13T01:28:23;101862.47;;;-19.13;61.10
50292;BME280;36190;54.980;73.388;2023-02-13T01:30:54;101865.88;;;-19.13;61.35
50292;BME280;36190;54.980;73.388;2023-02-13T01:33:22;101866.69;;;-19.14;61.37
50292;BME280;36190;54.980;73.388;2023-02-13T01:35:49;101863.19;;;-19.17;61.39
50292;BME280;36190;54.980;73.388;2023-02-13T01:38:17;101864.75;;;-19.21;61.28
50292;BME280;36190;54.980;73.388;2023-02-13T01:40:48;101866.38;;;-19.23;61.42
50292;BME280;36190;54.980;73.388;2023-02-13T01:43:16;101846.44;;;-19.35;61.48
50292;BME280;36190;54.980;73.388;2023-02-13T01:45:46;101859.50;;;-19.26;61.48
50292;BME280;36190;54.980;73.388;2023-02-13T01:48:16;101859.56;;;-19.24;61.59
50292;BME280;36190;54.980;73.388;2023-02-13T01:50:48;101866.22;;;-19.26;61.54
50292;BME280;36190;54.980;73.388;2023-02-13T01:53:19;101865.91;;;-19.36;61.51
50292;BME280;36190;54.980;73.388;2023-02-13T01:55:53;101870.53;;;-19.48;61.54
50292;BME280;36190;54.980;73.388;2023-02-13T01:58:23;101871.03;;;-19.57;61.50
50292;BME280;36190;54.980;73.388;2023-02-13T02:00:52;101871.09;;;-19.55;61.67
50292;BME280;36190;54.980;73.388;2023-02-13T02:03:23;101873.41;;;-19.61;61.72
50292;BME280;36190;54.980;73.388;2023-02-13T02:05:54;101862.53;;;-19.80;61.81
50292;BME280;36190;54.980;73.388;2023-02-13T02:08:23;101877.31;;;-19.70;61.81
50292;BME280;36190;54.980;73.388;2023-02-13T02:10:52;101880.50;;;-19.75;61.86
50292;BME280;36190;54.980;73.388;2023-02-13T02:13:22;101887.00;;;-19.82;61.77
50292;BME280;36190;54.980;73.388;2023-02-13T02:15:52;101881.63;;;-19.90;61.83
50292;BME280;36190;54.980;73.388;2023-02-13T02:18:21;101888.28;;;-19.94;61.83
50292;BME280;36190;54.980;73.388;2023-02-13T02:27:40;101850.03;;;-20.39;61.84
50292;BME280;36190;54.980;73.388;2023-02-13T02:30:47;101880.22;;;-20.26;61.98
50292;BME280;36190;54.980;73.388;2023-02-13T02:33:31;101867.41;;;-20.29;61.85
50292;BME280;36190;54.980;73.388;2023-02-13T02:36:21;101879.41;;;-20.25;62.00
50292;BME280;36190;54.980;73.388;2023-02-13T02:39:02;101879.78;;;-20.15;61.89
50292;BME280;36190;54.980;73.388;2023-02-13T02:41:42;101873.22;;;-20.10;61.93
50292;BME280;36190;54.980;73.388;2023-02-13T02:44:24;101870.44;;;-20.16;62.03
50292;BME280;36190;54.980;73.388;2023-02-13T02:47:00;101871.44;;;-20.13;61.97
50292;BME280;36190;54.980;73.388;2023-02-13T02:49:57;101876.50;;;-20.13;61.79
50292;BME280;36190;54.980;73.388;2023-02-13T02:52:36;101861.97;;;-20.17;61.80
50292;BME280;36190;54.980;73.388;2023-02-13T02:55:15;101882.75;;;-20.05;61.86
50292;BME280;36190;54.980;73.388;2023-02-13T02:57:48;101882.13;;;-19.99;61.83
50292;BME280;36190;54.980;73.388;2023-02-13T03:00:36;101889.09;;;-19.95;61.82
50292;BME280;36190;54.980;73.388;2023-02-13T03:03:24;101872.34;;;-19.89;61.79
50292;BME280;36190;54.980;73.388;2023-02-13T03:06:15;101881.47;;;-19.95;61.66
50292;BME280;36190;54.980;73.388;2023-02-13T03:08:46;101885.66;;;-19.95;61.95
50292;BME280;36190;54.980;73.388;2023-02-13T03:11:36;101882.38;;;-19.93;61.71
50292;BME280;36190;54.980;73.388;2023-02-13T03:14:24;101885.16;;;-19.86;61.75
50292;BME280;36190;54.980;73.388;2023-02-13T03:16:53;101878.63;;;-19.80;61.54
50292;BME280;36190;54.980;73.388;2023-02-13T03:19:45;101860.22;;;-19.97;61.53
50292;BME280;36190;54.980;73.388;2023-02-13T03:22:54;101868.91;;;-19.90;61.63
50292;BME280;36190;54.980;73.388;2023-02-13T03:25:29;101864.00;;;-19.85;61.61
50292;BME280;36190;54.980;73.388;2023-02-13T03:28:08;101863.63;;;-19.73;61.65
50292;BME280;36190;54.980;73.388;2023-02-13T03:31:04;101871.84;;;-19.58;61.58
50292;BME280;36190;54.980;73.388;2023-02-13T03:33:49;101877.34;;;-19.47;61.44
50292;BME280;36190;54.980;73.388;2023-02-13T03:36:39;101870.00;;;-19.39;61.40
50292;BME280;36190;54.980;73.388;2023-02-13T03:39:37;101873.34;;;-19.17;61.27
50292;BME280;36190;54.980;73.388;2023-02-13T03:42:11;101882.44;;;-19.00;61.28
50292;BME280;36190;54.980;73.388;2023-02-13T03:44:43;101875.25;;;-18.87;61.11
50292;BME280;36190;54.980;73.388;2023-02-13T03:47:34;101869.72;;;-18.75;60.89
50292;BME280;36190;54.980;73.388;2023-02-13T03:50:03;101882.97;;;-18.60;60.89
50292;BME280;36190;54.980;73.388;2023-02-13T03:52:33;101885.06;;;-18.48;60.75
50292;BME280;36190;54.980;73.388;2023-02-13T03:55:06;101875.69;;;-18.50;60.41
50292;BME280;36190;54.980;73.388;2023-02-13T03:57:55;101882.28;;;-18.56;60.44
50292;BME280;36190;54.980;73.388;2023-02-13T04:00:45;101871.66;;;-18.68;60.41
50292;BME280;36190;54.980;73.388;2023-02-13T04:03:18;101850.97;;;-18.77;60.33
50292;BME280;36190;54.980;73.388;2023-02-13T04:05:50;101868.34;;;-18.66;60.52
50292;BME280;36190;54.980;73.388;2023-02-13T04:08:20;101871.88;;;-18.62;60.55
50292;BME280;36190;54.980;73.388;2023-02-13T04:10:52;101863.53;;;-18.58;60.42
50292;BME280;36190;54.980;73.388;2023-02-13T04:13:25;101864.47;;;-18.56;60.37
50292;BME280;36190;54.980;73.388;2023-02-13T04:15:58;101862.56;;;-18.61;60.24
50292;BME280;36190;54.980;73.388;2023-02-13T04:18:30;101855.38;;;-18.73;60.36
50292;BME280;36190;54.980;73.388;2023-02-13T04:21:01;101868.31;;;-18.67;60.34
50292;BME280;36190;54.980;73.388;2023-02-13T04:23:28;101874.72;;;-18.54;60.46
50292;BME280;36190;54.980;73.388;2023-02-13T04:25:59;101878.63;;;-18.38;60.49
50292;BME280;36190;54.980;73.388;2023-02-13T04:28:28;101879.16;;;-18.22;60.43
50292;BME280;36190;54.980;73.388;2023-02-13T04:30:56;101884.53;;;-18.13;60.22
50292;BME280;36190;54.980;73.388;2023-02-13T04:33:23;101876.19;;;-18.09;60.11
50292;BME280;36190;54.980;73.388;2023-02-13T04:35:51;101871.94;;;-18.08;59.92
50292;BME280;36190;54.980;73.388;2023-02-13T04:38:18;101872.19;;;-18.01;59.90
50292;BME280;36190;54.980;73.388;2023-02-13T04:40:45;101867.38;;;-17.91;59.85
50292;BME280;36190;54.980;73.388;2023-02-13T04:43:14;101870.25;;;-17.80;59.77
50292;BME280;36190;54.980;73.388;2023-02-13T04:45:42;101871.94;;;-17.81;59.46
50292;BME280;36190;54.980;73.388;2023-02-13T04:48:09;101873.47;;;-17.86;59.36
50292;BME280;36190;54.980;73.388;2023-02-13T04:50:36;101860.84;;;-17.83;59.44
50292;BME280;36190;54.980;73.388;2023-02-13T04:53:04;101856.72;;;-17.78;59.51
50292;BME280;36190;54.980;73.388;2023-02-13T04:55:32;101853.66;;;-17.67;59.48
50292;BME280;36190;54.980;73.388;2023-02-13T04:57:59;101851.38;;;-17.58;59.37
50292;BME280;36190;54.980;73.388;2023-02-13T05:00:28;101859.22;;;-17.52;59.28
50292;BME280;36190;54.980;73.388;2023-02-13T05:02:59;101856.94;;;-17.43;59.20
50292;BME280;36190;54.980;73.388;2023-02-13T05:05:30;101859.84;;;-17.30;59.20
50292;BME280;36190;54.980;73.388;2023-02-13T05:07:58;101857.56;;;-17.21;59.03
50292;BME280;36190;54.980;73.388;2023-02-13T05:10:25;101858.63;;;-17.14;58.97
50292;BME280;36190;54.980;73.388;2023-02-13T05:12:53;101857.88;;;-17.10;58.84
50292;BME280;36190;54.980;73.388;2023-02-13T05:15:21;101864.06;;;-17.02;58.79
50292;BME280;36190;54.980;73.388;2023-02-13T05:17:50;101860.00;;;-16.93;58.76
50292;BME280;36190;54.980;73.388;2023-02-13T05:20:17;101865.34;;;-16.86;58.57
50292;BME280;36190;54.980;73.388;2023-02-13T05:22:45;101857.88;;;-16.78;58.55
50292;BME280;36190;54.980;73.388;2023-02-13T05:25:31;101866.59;;;-16.71;58.62
50292;BME280;36190;54.980;73.388;2023-02-13T05:27:58;101864.94;;;-16.67;58.34
50292;BME280;36190;54.980;73.388;2023-02-13T05:30:25;101868.44;;;-16.65;58.29
50292;BME280;36190;54.980;73.388;2023-02-13T05:32:53;101868.56;;;-16.61;58.37
50292;BME280;36190;54.980;73.388;2023-02-13T05:35:21;101855.94;;;-16.54;58.39
50292;BME280;36190;54.980;73.388;2023-02-13T05:37:49;101860.38;;;-16.47;58.28
50292;BME280;36190;54.980;73.388;2023-02-13T05:40:17;101854.59;;;-16.40;58.20
50292;BME280;36190;54.980;73.388;2023-02-13T05:42:44;101864.97;;;-16.34;58.20
50292;BME280;36190;54.980;73.388;2023-02-13T05:45:12;101862.66;;;-16.24;58.20
50292;BME280;36190;54.980;73.388;2023-02-13T05:47:40;101857.81;;;-16.13;58.19
50292;BME280;36190;54.980;73.388;2023-02-13T05:50:10;101858.19;;;-15.98;58.30
50292;BME280;36190;54.980;73.388;2023-02-13T05:52:37;101860.97;;;-15.87;58.21
50292;BME280;36190;54.980;73.388;2023-02-13T05:55:05;101865.63;;;-15.70;58.08
50292;BME280;36190;54.980;73.388;2023-02-13T05:57:33;101860.81;;;-15.56;57.92
50292;BME280;36190;54.980;73.388;2023-02-13T06:00:00;101863.47;;;-15.52;57.82
50292;BME280;36190;54.980;73.388;2023-02-13T06:02:28;101873.84;;;-15.45;57.59
50292;BME280;36190;54.980;73.388;2023-02-13T06:04:55;101880.84;;;-15.38;57.68
50292;BME280;36190;54.980;73.388;2023-02-13T06:07:24;101870.78;;;-15.29;57.53
50292;BME280;36190;54.980;73.388;2023-02-13T06:09:52;101875.25;;;-15.20;57.59
50292;BME280;36190;54.980;73.388;2023-02-13T06:12:19;101882.28;;;-15.10;57.46
50292;BME280;36190;54.980;73.388;2023-02-13T06:14:47;101874.72;;;-15.05;57.37
50292;BME280;36190;54.980;73.388;2023-02-13T06:17:14;101873.09;;;-15.00;57.25
50292;BME280;36190;54.980;73.388;2023-02-13T06:19:41;101873.22;;;-14.94;57.28
50292;BME280;36190;54.980;73.388;2023-02-13T06:22:09;101874.13;;;-14.90;57.12
50292;BME280;36190;54.980;73.388;2023-02-13T06:24:38;101871.66;;;-14.85;57.19
50292;BME280;36190;54.980;73.388;2023-02-13T06:27:05;101875.16;;;-14.83;57.31
50292;BME280;36190;54.980;73.388;2023-02-13T06:29:33;101863.28;;;-14.78;57.11
50292;BME280;36190;54.980;73.388;2023-02-13T06:32:00;101872.75;;;-14.72;57.18
50292;BME280;36190;54.980;73.388;2023-02-13T06:34:27;101866.00;;;-14.67;57.03
50292;BME280;36190;54.980;73.388;2023-02-13T06:36:55;101877.22;;;-14.60;57.06
50292;BME280;36190;54.980;73.388;2023-02-13T06:39:22;101867.13;;;-14.53;57.01
50292;BME280;36190;54.980;73.388;2023-02-13T06:41:51;101863.78;;;-14.50;56.95
50292;BME280;36190;54.980;73.388;2023-02-13T06:44:18;101855.25;;;-14.49;56.96
50292;BME280;36190;54.980;73.388;2023-02-13T06:46:46;101857.97;;;-14.40;56.99
50292;BME280;36190;54.980;73.388;2023-02-13T06:49:13;101856.31;;;-14.34;56.86
50292;BME280;36190;54.980;73.388;2023-02-13T06:51:41;101856.47;;;-14.27;56.86
50292;BME280;36190;54.980;73.388;2023-02-13T06:54:08;101856.63;;;-14.17;56.89
50292;BME280;36190;54.980;73.388;2023-02-13T06:56:36;101852.53;;;-14.07;56.94
50292;BME280;36190;54.980;73.388;2023-02-13T06:59:05;101856.06;;;-13.99;56.90
50292;BME280;36190;54.980;73.388;2023-02-13T07:01:32;101856.22;;;-13.90;56.98
50292;BME280;36190;54.980;73.388;2023-02-13T07:04:00;101864.94;;;-13.80;56.84
50292;BME280;36190;54.980;73.388;2023-02-13T07:06:27;101859.78;;;-13.82;56.88
50292;BME280;36190;54.980;73.388;2023-02-13T07:08:54;101864.19;;;-13.73;56.71
50292;BME280;36190;54.980;73.388;2023-02-13T07:11:23;101861.63;;;-13.71;56.67
50292;BME280;36190;54.980;73.388;2023-02-13T07:13:51;101866.81;;;-13.68;56.54
50292;BME280;36190;54.980;73.388;2023-02-13T07:16:20;101866.81;;;-13.68;56.45
50292;BME280;36190;54.980;73.388;2023-02-13T07:18:47;101871.97;;;-13.68;56.42
50292;BME280;36190;54.980;73.388;2023-02-13T07:21:15;101879.66;;;-13.68;56.20
50292;BME280;36190;54.980;73.388;2023-02-13T07:23:42;101871.13;;;-13.67;56.21
50292;BME280;36190;54.980;73.388;2023-02-13T07:26:09;101865.06;;;-13.69;56.21
50292;BME280;36190;54.980;73.388;2023-02-13T07:28:37;101859.19;;;-13.62;56.17
50292;BME280;36190;54.980;73.388;2023-02-13T07:31:05;101853.38;;;-13.51;56.22
50292;BME280;36190;54.980;73.388;2023-02-13T07:33:34;101846.59;;;-13.42;56.04
50292;BME280;36190;54.980;73.388;2023-02-13T07:36:02;101840.00;;;-13.24;56.06
50292;BME280;36190;54.980;73.388;2023-02-13T07:38:30;101842.78;;;-13.05;55.94
50292;BME280;36190;54.980;73.388;2023-02-13T07:40:58;101839.63;;;-12.82;55.75
50292;BME280;36190;54.980;73.388;2023-02-13T07:43:25;101840.72;;;-12.60;55.52
50292;BME280;36190;54.980;73.388;2023-02-13T07:45:53;101842.63;;;-12.40;55.52
50292;BME280;36190;54.980;73.388;2023-02-13T07:48:21;101833.34;;;-12.24;55.31
50292;BME280;36190;54.980;73.388;2023-02-13T07:50:50;101836.00;;;-12.13;55.18
50292;BME280;36190;54.980;73.388;2023-02-13T07:53:17;101830.91;;;-12.01;55.00
50292;BME280;36190;54.980;73.388;2023-02-13T07:55:45;101830.16;;;-11.86;55.00
50292;BME280;36190;54.980;73.388;2023-02-13T07:58:13;101830.28;;;-11.69;55.08
50292;BME280;36190;54.980;73.388;2023-02-13T08:00:40;101815.78;;;-11.54;54.88
50292;BME280;36190;54.980;73.388;2023-02-13T08:03:08;101817.53;;;-11.44;54.62
50292;BME280;36190;54.980;73.388;2023-02-13T08:05:36;101809.03;;;-11.30;54.54
50292;BME280;36190;54.980;73.388;2023-02-13T08:08:05;101812.50;;;-11.19;54.42
50292;BME280;36190;54.980;73.388;2023-02-13T08:10:33;101821.16;;;-11.01;54.32
50292;BME280;36190;54.980;73.388;2023-02-13T08:13:29;101821.22;;;-10.89;54.39
50292;BME280;36190;54.980;73.388;2023-02-13T08:15:57;101821.22;;;-10.80;54.22
50292;BME280;36190;54.980;73.388;2023-02-13T08:18:24;101828.16;;;-10.66;54.01
50292;BME280;36190;54.980;73.388;2023-02-13T08:20:52;101817.84;;;-10.57;54.13
50292;BME280;36190;54.980;73.388;2023-02-13T08:23:21;101818.69;;;-10.50;54.03
50292;BME280;36190;54.980;73.388;2023-02-13T08:25:48;101810.97;;;-10.45;53.92
50292;BME280;36190;54.980;73.388;2023-02-13T08:28:16;101814.41;;;-10.36;53.79
50292;BME280;36190;54.980;73.388;2023-02-13T08:30:43;101815.25;;;-10.29;53.75
50292;BME280;36190;54.980;73.388;2023-02-13T08:33:11;101821.25;;;-10.22;53.78
50292;BME280;36190;54.980;73.388;2023-02-13T08:35:39;101813.53;;;-10.08;53.62
50292;BME280;36190;54.980;73.388;2023-02-13T08:38:06;101812.66;;;-9.98;53.63
50292;BME280;36190;54.980;73.388;2023-02-13T08:40:35;101824.72;;;-9.90;53.45
50292;BME280;36190;54.980;73.388;2023-02-13T08:43:04;101819.53;;;-9.92;53.33
50292;BME280;36190;54.980;73.388;2023-02-13T08:45:32;101828.13;;;-9.77;53.20
50292;BME280;36190;54.980;73.388;2023-02-13T08:47:59;101821.22;;;-9.61;53.28
50292;BME280;36190;54.980;73.388;2023-02-13T08:50:29;101828.09;;;-9.48;53.19
50292;BME280;36190;54.980;73.388;2023-02-13T08:52:57;101808.22;;;-9.35;52.80
50292;BME280;36190;54.980;73.388;2023-02-13T08:55:25;101816.81;;;-9.25;52.81
50292;BME280;36190;54.980;73.388;2023-02-13T08:57:54;101823.66;;;-9.16;52.68
50292;BME280;36190;54.980;73.388;2023-02-13T09:00:22;101815.00;;;-9.09;52.77
50292;BME280;36190;54.980;73.388;2023-02-13T09:02:49;101817.59;;;-9.01;52.60
50292;BME280;36190;54.980;73.388;2023-02-13T09:05:21;101810.63;;;-8.90;52.50
50292;BME280;36190;54.980;73.388;2023-02-13T09:07:48;101813.16;;;-8.80;52.40
50292;BME280;36190;54.980;73.388;2023-02-13T09:10:16;101810.59;;;-8.84;52.08
50292;BME280;36190;54.980;73.388;2023-02-13T09:12:44;101812.38;;;-8.90;52.15
50292;BME280;36190;54.980;73.388;2023-02-13T09:15:19;101807.13;;;-8.82;52.16
50292;BME280;36190;54.980;73.388;2023-02-13T09:17:47;101799.31;;;-8.70;52.18
50292;BME280;36190;54.980;73.388;2023-02-13T09:20:14;101788.91;;;-8.61;51.89
50292;BME280;36190;54.980;73.388;2023-02-13T09:22:42;101794.84;;;-8.51;51.92
50292;BME280;36190;54.980;73.388;2023-02-13T09:25:09;101803.34;;;-8.38;51.84
50292;BME280;36190;54.980;73.388;2023-02-13T09:27:37;101807.56;;;-8.23;51.71
50292;BME280;36190;54.980;73.388;2023-02-13T09:30:06;101814.38;;;-8.11;51.59
50292;BME280;36190;54.980;73.388;2023-02-13T09:32:35;101813.47;;;-8.07;51.29
50292;BME280;36190;54.980;73.388;2023-02-13T09:35:04;101816.19;;;-8.22;51.12
50292;BME280;36190;54.980;73.388;2023-02-13T09:37:31;101823.16;;;-8.27;51.10
50292;BME280;36190;54.980;73.388;2023-02-13T09:39:58;101817.09;;;-8.25;51.11
50292;BME280;36190;54.980;73.388;2023-02-13T09:42:29;101820.53;;;-8.24;50.90
50292;BME280;36190;54.980;73.388;2023-02-13T09:44:59;101819.69;;;-8.28;50.75
50292;BME280;36190;54.980;73.388;2023-02-13T09:47:30;101818.84;;;-8.29;50.56
50292;BME280;36190;54.980;73.388;2023-02-13T09:50:03;101821.44;;;-8.29;50.41
50292;BME280;36190;54.980;73.388;2023-02-13T09:52:32;101819.72;;;-8.33;50.32
50292;BME280;36190;54.980;73.388;2023-02-13T09:55:01;101823.22;;;-8.37;50.57
50292;BME280;36190;54.980;73.388;2023-02-13T09:57:33;101800.81;;;-8.44;50.16
50292;BME280;36190;54.980;73.388;2023-02-13T10:00:05;101811.97;;;-8.36;50.15
50292;BME280;36190;54.980;73.388;2023-02-13T10:02:52;101813.75;;;-8.41;49.86
50292;BME280;36190;54.980;73.388;2023-02-13T10:05:42;101812.94;;;-8.49;50.01
50292;BME280;36190;54.980;73.388;2023-02-13T10:08:20;101806.16;;;-8.66;50.04
50292;BME280;36190;54.980;73.388;2023-02-13T10:10:57;101812.19;;;-8.64;50.14
50292;BME280;36190;54.980;73.388;2023-02-13T10:13:50;101813.06;;;-8.65;49.68
50292;BME280;36190;54.980;73.388;2023-02-13T10:16:22;101817.41;;;-8.67;50.22
50292;BME280;36190;54.980;73.388;2023-02-13T10:18:57;101817.38;;;-8.61;50.03
50292;BME280;36190;54.980;73.388;2023-02-13T10:21:29;101810.44;;;-8.57;50.14
50292;BME280;36190;54.980;73.388;2023-02-13T10:24:00;101813.88;;;-8.57;50.08
50292;BME280;36190;54.980;73.388;2023-02-13T10:26:33;101809.56;;;-8.58;49.87
50292;BME280;36190;54.980;73.388;2023-02-13T10:29:16;101801.81;;;-8.56;49.88
50292;BME280;36190;54.980;73.388;2023-02-13T10:32:07;101805.16;;;-8.49;49.87
50292;BME280;36190;54.980;73.388;2023-02-13T10:34:38;101811.19;;;-8.46;50.00
50292;BME280;36190;54.980;73.388;2023-02-13T10:37:13;101818.91;;;-8.41;49.67
50292;BME280;36190;54.980;73.388;2023-02-13T10:39:44;101818.97;;;-8.50;50.01
50292;BME280;36190;54.980;73.388;2023-02-13T10:42:19;101809.56;;;-8.59;49.79
50292;BME280;36190;54.980;73.388;2023-02-13T10:45:02;101814.81;;;-8.65;50.04
50292;BME280;36190;54.980;73.388;2023-02-13T10:47:45;101817.38;;;-8.61;50.22
50292;BME280;36190;54.980;73.388;2023-02-13T10:50:22;101820.84;;;-8.68;50.16
50292;BME280;36190;54.980;73.388;2023-02-13T10:53:04;101818.31;;;-8.80;49.89
50292;BME280;36190;54.980;73.388;2023-02-13T10:55:54;101827.00;;;-8.91;49.78
50292;BME280;36190;54.980;73.388;2023-02-13T10:58:28;101823.63;;;-9.04;50.13
50292;BME280;36190;54.980;73.388;2023-02-13T11:01:02;101819.41;;;-9.25;50.21
50292;BME280;36190;54.980;73.388;2023-02-13T11:03:33;101816.03;;;-9.55;50.45
50292;BME280;36190;54.980;73.388;2023-02-13T11:06:05;101818.66;;;-9.74;50.62
50292;BME280;36190;54.980;73.388;2023-02-13T11:08:40;101806.63;;;-9.87;50.69
50292;BME280;36190;54.980;73.388;2023-02-13T11:11:29;101810.91;;;-9.86;50.76
50292;BME280;36190;54.980;73.388;2023-02-13T11:14:19;101809.22;;;-10.03;50.51
50292;BME280;36190;54.980;73.388;2023-02-13T11:16:50;101810.13;;;-10.47;51.06
50292;BME280;36190;54.980;73.388;2023-02-13T11:19:23;101809.16;;;-10.84;51.43
50292;BME280;36190;54.980;73.388;2023-02-13T11:21:54;101805.63;;;-11.17;51.76
50292;BME280;36190;54.980;73.388;2023-02-13T11:24:25;101806.34;;;-11.48;51.92
50292;BME280;36190;54.980;73.388;2023-02-13T11:26:57;101804.53;;;-11.72;52.28
50292;BME280;36190;54.980;73.388;2023-02-13T11:29:27;101799.19;;;-11.95;52.48
50292;BME280;36190;54.980;73.388;2023-02-13T11:32:15;101806.84;;;-12.09;52.72
50292;BME280;36190;54.980;73.388;2023-02-13T11:34:44;101796.38;;;-12.34;52.86
50292;BME280;36190;54.980;73.388;2023-02-13T11:37:18;101810.84;;;-12.47;52.97
50292;BME280;36190;54.980;73.388;2023-02-13T11:39:50;101810.72;;;-12.60;53.51
50292;BME280;36190;54.980;73.388;2023-02-13T11:42:23;101810.53;;;-12.78;53.49
50292;BME280;36190;54.980;73.388;2023-02-13T11:44:53;101810.34;;;-12.97;53.62
50292;BME280;36190;54.980;73.388;2023-02-13T11:47:34;101816.22;;;-13.06;53.68
50292;BME280;36190;54.980;73.388;2023-02-13T11:50:03;101796.25;;;-13.30;53.95
50292;BME280;36190;54.980;73.388;2023-02-13T11:52:32;101812.38;;;-13.42;54.26
50292;BME280;36190;54.980;73.388;2023-02-13T11:55:05;101816.50;;;-13.54;54.26
50292;BME280;36190;54.980;73.388;2023-02-13T11:57:56;101830.13;;;-13.59;54.35
50292;BME280;36190;54.980;73.388;2023-02-13T12:00:28;101813.56;;;-13.82;54.29
50292;BME280;36190;54.980;73.388;2023-02-13T12:02:58;101825.47;;;-13.87;54.11
50292;BME280;36190;54.980;73.388;2023-02-13T12:05:27;101810.47;;;-14.17;54.70
50292;BME280;36190;54.980;73.388;2023-02-13T12:07:57;101818.03;;;-14.25;54.83
50292;BME280;36190;54.980;73.388;2023-02-13T12:10:28;101811.09;;;-14.32;54.96
50292;BME280;36190;54.980;73.388;2023-02-13T12:12:58;101829.81;;;-14.38;54.88
50292;BME280;36190;54.980;73.388;2023-02-13T12:15:30;101835.50;;;-14.55;54.97
50292;BME280;36190;54.980;73.388;2023-02-13T12:18:05;101841.31;;;-14.63;55.17
50292;BME280;36190;54.980;73.388;2023-02-13T12:20:42;101839.44;;;-14.74;55.27
50292;BME280;36190;54.980;73.388;2023-02-13T12:23:22;101836.72;;;-14.82;55.39
50292;BME280;36190;54.980;73.388;2023-02-13T12:26:07;101833.22;;;-14.87;55.35
50292;BME280;36190;54.980;73.388;2023-02-13T12:28:50;101841.53;;;-14.97;55.41
50292;BME280;36190;54.980;73.388;2023-02-13T12:31:38;101832.88;;;-15.04;55.68
50292;BME280;36190;54.980;73.388;2023-02-13T12:37:36;101825.78;;;-15.19;55.56
50292;BME280;36190;54.980;73.388;2023-02-13T12:40:26;101832.19;;;-15.38;55.48
50292;BME280;36190;54.980;73.388;2023-02-13T12:43:12;101822.59;;;-15.49;55.63
50292;BME280;36190;54.980;73.388;2023-02-13T12:45:49;101827.63;;;-15.52;55.83
50292;BME280;36190;54.980;73.388;2023-02-13T12:48:28;101820.75;;;-15.56;55.87
50292;BME280;36190;54.980;73.388;2023-02-13T12:51:05;101827.44;;;-15.61;56.06
50292;BME280;36190;54.980;73.388;2023-02-13T12:53:47;101823.06;;;-15.65;56.12
50292;BME280;36190;54.980;73.388;2023-02-13T12:59:26;101814.84;;;-15.90;56.30
50292;BME280;36190;54.980;73.388;2023-02-13T13:02:20;101808.81;;;-15.95;56.20
50292;BME280;36190;54.980;73.388;2023-02-13T13:05:04;101806.09;;;-16.01;56.30
50292;BME280;36190;54.980;73.388;2023-02-13T13:10:38;101809.44;;;-16.06;56.32
50292;BME280;36190;54.980;73.388;2023-02-13T13:13:16;101804.16;;;-16.12;56.44
50292;BME280;36190;54.980;73.388;2023-02-13T13:15:54;101793.56;;;-16.27;56.54